Time;durP1;ratioP1;P1;durP2;ratioP2;P2;SDS_P1;SDS_P2;PMS_P1;PMS_P2;Temp;Humidity;BMP_temperature;BMP_pressure;BME280_temperature;BME280_humidity;BME280_pressure;Samples;Min_cycle;Max_cycle;Signal;HPM_P1;HPM_P2
2021/06/13 00:00:37;;;;;;;7.20;3.13;;;17.40;99.90;;;;;;4130232;28;20101;-85
2021/06/13 00:02:37;;;;;;;5.93;2.83;;;17.40;99.90;;;;;;4145957;28;20041;-85
2021/06/13 00:04:38;;;;;;;7.70;3.28;;;17.40;99.90;;;;;;4129518;28;20671;-85
2021/06/13 00:06:39;;;;;;;5.85;3.03;;;17.40;99.90;;;;;;4130377;28;20121;-85
2021/06/13 00:08:39;;;;;;;5.80;3.13;;;17.40;99.90;;;;;;4144604;28;20176;-85
2021/06/13 00:10:40;;;;;;;8.57;3.67;;;17.40;99.90;;;;;;4128072;28;20030;-85
2021/06/13 00:12:41;;;;;;;6.82;3.05;;;17.40;99.90;;;;;;4129770;28;20057;-85
2021/06/13 00:14:41;;;;;;;7.05;3.45;;;17.40;99.90;;;;;;4130317;28;20442;-85
2021/06/13 00:16:42;;;;;;;4.63;2.97;;;17.40;99.90;;;;;;4129524;28;20022;-85
2021/06/13 00:18:43;;;;;;;4.57;2.90;;;17.40;99.90;;;;;;4146076;28;20117;-85
2021/06/13 00:20:44;;;;;;;8.05;3.28;;;17.40;99.90;;;;;;4128924;28;20081;-86
2021/06/13 00:22:45;;;;;;;5.90;3.20;;;17.30;99.90;;;;;;4145062;28;20033;-86
2021/06/13 00:24:55;;;;;;;6.18;3.50;;;17.30;99.90;;;;;;4146292;28;20033;-86
2021/06/13 00:26:56;;;;;;;8.38;2.80;;;17.30;99.90;;;;;;4120200;28;20113;-85
2021/06/13 00:28:56;;;;;;;7.57;3.25;;;17.30;99.90;;;;;;4145365;28;20041;-85
2021/06/13 00:30:57;;;;;;;8.52;3.08;;;17.30;99.90;;;;;;4145139;28;20149;-85
2021/06/13 00:32:57;;;;;;;8.07;3.63;;;17.30;99.90;;;;;;4134020;28;20104;-85
2021/06/13 00:34:58;;;;;;;5.60;3.28;;;17.30;99.90;;;;;;4146222;28;20044;-85
2021/06/13 00:36:59;;;;;;;6.32;3.10;;;17.30;99.90;;;;;;4145558;28;20812;-85
2021/06/13 00:38:59;;;;;;;7.47;3.45;;;17.30;99.90;;;;;;4147570;28;20041;-86
2021/06/13 00:41:00;;;;;;;5.00;2.60;;;17.20;99.90;;;;;;4129363;28;20148;-86
2021/06/13 00:43:02;;;;;;;7.75;3.42;;;17.20;99.90;;;;;;4129052;28;20034;-86
2021/06/13 00:45:04;;;;;;;7.82;3.58;;;17.10;99.90;;;;;;4146901;28;20430;-85
2021/06/13 00:47:05;;;;;;;7.78;4.30;;;17.10;99.90;;;;;;4129002;28;20026;-86
2021/06/13 00:49:06;;;;;;;12.63;4.03;;;17.00;99.90;;;;;;4147084;28;20046;-86
2021/06/13 00:51:16;;;;;;;7.82;4.10;;;16.90;99.90;;;;;;4125860;28;20030;-86
2021/06/13 00:53:18;;;;;;;6.78;3.65;;;16.90;99.90;;;;;;4146322;28;20037;-85
2021/06/13 00:55:20;;;;;;;7.18;3.13;;;16.80;99.90;;;;;;4129010;28;20121;-85
2021/06/13 00:57:21;;;;;;;8.75;3.92;;;16.90;99.90;;;;;;4125613;28;20141;-85
2021/06/13 00:59:21;;;;;;;6.38;3.25;;;16.80;99.90;;;;;;4145480;28;20038;-85
2021/06/13 01:01:24;;;;;;;6.18;3.80;;;16.80;99.90;;;;;;4129321;28;20039;-85
2021/06/13 01:03:24;;;;;;;9.75;4.80;;;16.80;99.90;;;;;;4145417;28;20114;-85
2021/06/13 01:05:27;;;;;;;7.72;4.47;;;16.90;99.90;;;;;;4129039;28;20034;-86
2021/06/13 01:07:41;;;;;;;13.38;4.28;;;16.80;99.90;;;;;;4129240;28;20031;-86
2021/06/13 01:09:51;;;;;;;8.25;4.43;;;16.60;99.90;;;;;;4128552;28;20067;-85
2021/06/13 01:11:54;;;;;;;10.30;4.40;;;16.60;99.90;;;;;;4144997;28;20475;-85
2021/06/13 01:14:20;;;;;;;8.43;3.45;;;16.50;99.90;;;;;;4127888;28;20031;-85
2021/06/13 01:16:53;;;;;;;9.50;3.50;;;16.50;99.90;;;;;;4128526;28;20471;-85
2021/06/13 01:19:11;;;;;;;8.35;4.25;;;16.50;99.90;;;;;;4132019;28;20045;-85
2021/06/13 01:21:22;;;;;;;8.93;4.25;;;16.40;99.90;;;;;;4127598;28;20039;-85
2021/06/13 01:23:46;;;;;;;8.77;4.18;;;16.40;99.90;;;;;;4129268;28;20034;-86
2021/06/13 01:26:24;;;;;;;9.98;4.60;;;16.40;99.90;;;;;;4142875;28;20097;-86
2021/06/13 01:28:43;;;;;;;10.57;4.75;;;16.30;99.90;;;;;;4142685;28;20541;-85
2021/06/13 01:30:46;;;;;;;8.40;4.72;;;16.20;99.90;;;;;;4141663;28;20108;-85
2021/06/13 01:32:47;;;;;;;11.43;4.82;;;16.10;99.90;;;;;;4144903;28;20034;-85
2021/06/13 01:34:56;;;;;;;9.60;5.25;;;16.00;99.90;;;;;;4128540;28;20489;-86
2021/06/13 01:36:59;;;;;;;8.80;4.53;;;15.90;99.90;;;;;;4128267;28;20129;-86
2021/06/13 01:39:09;;;;;;;7.03;4.55;;;15.90;99.90;;;;;;4128663;28;20130;-85
2021/06/13 01:41:12;;;;;;;8.63;4.20;;;15.90;99.90;;;;;;4143663;28;20068;-85
2021/06/13 01:43:15;;;;;;;8.25;4.63;;;15.90;99.90;;;;;;4128243;28;20062;-85
2021/06/13 01:45:20;;;;;;;11.48;4.70;;;15.90;99.90;;;;;;4155129;28;20037;-85
2021/06/13 01:47:22;;;;;;;10.25;4.90;;;15.90;99.90;;;;;;4119824;28;20422;-85
2021/06/13 01:49:24;;;;;;;17.02;5.72;;;15.80;99.90;;;;;;4144261;28;20454;-85
2021/06/13 01:51:25;;;;;;;7.22;4.15;;;15.90;99.90;;;;;;4143497;28;20050;-85
2021/06/13 01:53:27;;;;;;;8.15;4.35;;;15.80;99.90;;;;;;4128005;28;20109;-85
2021/06/13 01:55:29;;;;;;;8.65;3.85;;;15.80;99.90;;;;;;4142565;28;20111;-85
2021/06/13 01:57:30;;;;;;;6.97;3.83;;;15.80;99.90;;;;;;4125540;28;20041;-85
2021/06/13 01:59:33;;;;;;;7.45;4.30;;;15.80;99.90;;;;;;4144599;28;20040;-85
2021/06/13 02:01:35;;;;;;;9.23;4.88;;;15.80;99.90;;;;;;4156810;28;20148;-85
2021/06/13 02:03:37;;;;;;;6.32;3.90;;;15.80;99.90;;;;;;4144267;28;20034;-85
2021/06/13 02:05:40;;;;;;;7.82;4.28;;;15.90;99.90;;;;;;4126923;28;20069;-85
2021/06/13 02:07:41;;;;;;;9.30;4.50;;;15.90;99.90;;;;;;4144547;28;20037;-85
2021/06/13 02:10:04;;;;;;;11.15;4.80;;;15.80;99.90;;;;;;4144389;28;20883;-85
2021/06/13 02:12:05;;;;;;;7.65;4.45;;;15.80;99.90;;;;;;4144053;28;20575;-85
2021/06/13 02:14:08;;;;;;;7.07;4.47;;;15.70;99.90;;;;;;4127858;28;20117;-85
2021/06/13 02:16:09;;;;;;;6.82;4.30;;;15.70;99.90;;;;;;4127606;28;20041;-85
2021/06/13 02:18:30;;;;;;;5.50;4.30;;;15.60;99.90;;;;;;4140716;28;20085;-85
2021/06/13 02:20:31;;;;;;;7.70;4.32;;;15.60;99.90;;;;;;4127920;28;20022;-85
2021/06/13 02:22:34;;;;;;;7.85;4.38;;;15.60;99.90;;;;;;4143898;28;20026;-85
2021/06/13 02:24:36;;;;;;;9.25;4.50;;;15.60;99.90;;;;;;4144438;28;20110;-85
2021/06/13 02:26:40;;;;;;;;;;;15.50;99.90;;;;;;4128126;28;20525;-85
2021/06/13 02:28:55;;;;;;;7.43;4.47;;;15.50;99.90;;;;;;4138885;28;20063;-85
2021/06/13 02:30:58;;;;;;;7.18;4.68;;;15.60;99.90;;;;;;4143984;28;20390;-85
2021/06/13 02:33:01;;;;;;;10.40;4.68;;;15.50;99.90;;;;;;4124086;28;20054;-85
2021/06/13 02:35:04;;;;;;;7.35;4.03;;;15.50;99.90;;;;;;4136963;28;20121;-85
2021/06/13 02:37:09;;;;;;;8.68;4.28;;;15.60;99.90;;;;;;4125524;28;20030;-86
2021/06/13 02:39:11;;;;;;;8.55;4.40;;;15.50;99.90;;;;;;4139789;28;20049;-85
2021/06/13 02:41:11;;;;;;;9.23;4.55;;;15.50;99.90;;;;;;4125968;28;20152;-85
2021/06/13 02:43:12;;;;;;;9.70;4.88;;;15.60;99.90;;;;;;4124916;28;20126;-86
2021/06/13 02:45:16;;;;;;;7.80;4.30;;;15.60;99.90;;;;;;4141511;28;20121;-85
2021/06/13 02:47:17;;;;;;;8.23;4.18;;;15.60;99.90;;;;;;4122973;28;20056;-85
2021/06/13 02:49:19;;;;;;;6.03;4.38;;;15.60;99.90;;;;;;4125199;28;20507;-86
2021/06/13 02:51:23;;;;;;;9.87;4.60;;;15.60;99.90;;;;;;4125451;28;20440;-86
2021/06/13 02:53:32;;;;;;;8.77;4.20;;;15.60;99.90;;;;;;4121755;28;20026;-86
2021/06/13 02:56:13;;;;;;;10.23;4.82;;;15.60;99.90;;;;;;4144018;28;20049;-85
2021/06/13 02:58:42;;;;;;;7.18;4.05;;;15.70;99.90;;;;;;4142167;28;20505;-85
2021/06/13 03:00:45;;;;;;;7.07;4.30;;;15.70;99.90;;;;;;4137073;28;20041;-86
2021/06/13 03:02:47;;;;;;;;;;;15.70;99.90;;;;;;4140436;28;20513;-86
2021/06/13 03:04:49;;;;;;;5.78;3.78;;;15.70;99.90;;;;;;4134900;28;19940;-85
2021/06/13 03:06:55;;;;;;;8.85;3.95;;;15.70;99.90;;;;;;4135038;28;20080;-85
2021/06/13 03:08:56;;;;;;;7.75;3.72;;;15.70;99.90;;;;;;4137058;28;20045;-85
2021/06/13 03:11:01;;;;;;;7.60;3.95;;;15.70;99.90;;;;;;4140044;28;20378;-85
2021/06/13 03:13:03;;;;;;;6.95;4.55;;;15.60;99.90;;;;;;4140680;28;20045;-85
2021/06/13 03:15:04;;;;;;;9.18;4.55;;;15.70;99.90;;;;;;4139369;28;20043;-85
2021/06/13 03:17:05;;;;;;;6.32;4.28;;;15.60;99.90;;;;;;4137198;28;20077;-85
2021/06/13 03:19:08;;;;;;;6.47;4.65;;;15.60;99.90;;;;;;4121006;28;20454;-85
2021/06/13 03:21:11;;;;;;;10.63;5.20;;;15.60;99.90;;;;;;4142130;28;20106;-86
2021/06/13 03:23:13;;;;;;;8.25;4.70;;;15.60;99.90;;;;;;4124059;28;20860;-85
2021/06/13 03:25:14;;;;;;;9.10;4.40;;;15.60;99.90;;;;;;4143743;28;20034;-85
2021/06/13 03:27:16;;;;;;;7.25;4.63;;;15.60;99.90;;;;;;4144780;28;20532;-85
2021/06/13 03:29:17;;;;;;;8.13;4.43;;;15.50;99.90;;;;;;4126723;28;20508;-85
2021/06/13 03:31:19;;;;;;;8.15;4.38;;;15.50;99.90;;;;;;4127585;28;20043;-85
2021/06/13 03:33:20;;;;;;;7.45;4.30;;;15.50;99.90;;;;;;4127370;28;20479;-85
2021/06/13 03:35:23;;;;;;;5.47;3.78;;;15.50;99.90;;;;;;4143715;28;20037;-85
2021/06/13 03:37:24;;;;;;;6.80;3.42;;;15.50;99.90;;;;;;4125844;28;20027;-85
2021/06/13 03:39:25;;;;;;;7.05;3.97;;;15.50;99.90;;;;;;4139791;28;20030;-86
2021/06/13 03:41:26;;;;;;;9.30;4.03;;;15.50;99.90;;;;;;4127114;28;20027;-86
2021/06/13 03:43:35;;;;;;;6.70;3.97;;;15.50;99.90;;;;;;4127541;28;20031;-85
2021/06/13 03:45:36;;;;;;;7.80;4.32;;;15.50;99.90;;;;;;4125696;28;20060;-85
2021/06/13 03:47:38;;;;;;;10.43;5.00;;;15.50;99.90;;;;;;4126582;28;20464;-85
2021/06/13 03:49:40;;;;;;;9.97;4.50;;;15.50;99.90;;;;;;4127212;28;20108;-85
2021/06/13 03:51:40;;;;;;;7.45;4.78;;;15.50;99.90;;;;;;4126552;28;20039;-85
2021/06/13 03:53:54;;;;;;;10.63;5.30;;;15.50;99.90;;;;;;4127206;28;20038;-85
2021/06/13 03:56:00;;;;;;;7.10;4.47;;;15.50;99.90;;;;;;4140564;28;20117;-85
2021/06/13 03:58:01;;;;;;;8.02;4.80;;;15.40;99.90;;;;;;4126650;28;20037;-85
2021/06/13 04:00:03;;;;;;;8.60;4.45;;;15.40;99.90;;;;;;4142696;28;20053;-85
2021/06/13 04:02:05;;;;;;;8.32;4.50;;;15.30;99.90;;;;;;4126835;28;20101;-85
2021/06/13 04:04:07;;;;;;;8.70;4.72;;;15.20;99.90;;;;;;4127381;28;20037;-85
2021/06/13 04:06:08;;;;;;;9.98;5.10;;;15.20;99.90;;;;;;4127457;28;20503;-85
2021/06/13 04:08:24;;;;;;;13.68;4.80;;;15.20;99.90;;;;;;4143120;28;20037;-85
2021/06/13 04:10:26;;;;;;;9.05;4.63;;;15.10;99.90;;;;;;4143054;28;20050;-85
2021/06/13 04:12:27;;;;;;;8.88;5.07;;;15.10;99.90;;;;;;4142621;28;20617;-85
2021/06/13 04:14:28;;;;;;;8.30;4.70;;;15.10;99.90;;;;;;4143752;28;20033;-85
2021/06/13 04:16:29;;;;;;;10.60;4.68;;;15.10;99.90;;;;;;4144215;28;20097;-85
2021/06/13 04:18:30;;;;;;;6.85;4.50;;;15.00;99.90;;;;;;4126065;28;20043;-85
2021/06/13 04:20:31;;;;;;;8.93;4.88;;;15.00;99.90;;;;;;4139040;28;20030;-85
2021/06/13 04:22:32;;;;;;;8.82;4.88;;;15.10;99.90;;;;;;4142475;28;20034;-85
2021/06/13 04:24:33;;;;;;;9.38;4.95;;;15.00;99.90;;;;;;4126577;28;20084;-85
2021/06/13 04:26:49;;;;;;;9.38;5.13;;;15.00;99.90;;;;;;4139646;28;20049;-85
2021/06/13 04:28:50;;;;;;;10.57;5.30;;;15.10;99.90;;;;;;4145098;28;20034;-85
2021/06/13 04:31:02;;;;;;;11.65;5.43;;;15.10;99.90;;;;;;4129433;28;20134;-85
2021/06/13 04:33:06;;;;;;;10.05;5.35;;;15.10;99.90;;;;;;4141489;28;20573;-85
2021/06/13 04:35:07;;;;;;;9.98;5.03;;;15.10;99.90;;;;;;4129483;28;20088;-85
2021/06/13 04:37:09;;;;;;;12.85;5.90;;;15.00;99.90;;;;;;4145748;28;20038;-85
2021/06/13 04:39:10;;;;;;;;;;;15.00;99.90;;;;;;4140530;28;20046;-85
2021/06/13 04:41:13;;;;;;;11.48;5.57;;;15.00;99.90;;;;;;4126913;28;19945;-85
2021/06/13 04:43:14;;;;;;;10.82;6.20;;;15.00;99.90;;;;;;4122344;28;20496;-85
2021/06/13 04:45:15;;;;;;;9.68;5.82;;;15.00;99.90;;;;;;4129116;28;20045;-85
2021/06/13 04:47:16;;;;;;;10.88;6.32;;;15.00;99.90;;;;;;4145546;28;20042;-85
2021/06/13 04:49:16;;;;;;;12.82;6.63;;;15.00;99.90;;;;;;4129045;28;20403;-85
2021/06/13 04:51:17;;;;;;;13.60;6.50;;;15.00;99.90;;;;;;4128859;28;20035;-85
2021/06/13 04:53:58;;;;;;;9.85;6.25;;;15.00;99.90;;;;;;4129203;28;20422;-85
2021/06/13 04:56:07;;;;;;;12.20;6.43;;;15.00;99.90;;;;;;4129095;28;20419;-85
2021/06/13 04:58:22;;;;;;;10.98;6.20;;;15.00;99.90;;;;;;4113333;28;20019;-85
2021/06/13 05:00:28;;;;;;;11.10;6.03;;;15.00;99.90;;;;;;4129545;28;20038;-85
2021/06/13 05:02:29;;;;;;;9.93;6.43;;;15.00;99.90;;;;;;4125024;28;20039;-85
2021/06/13 05:04:36;;;;;;;12.20;6.18;;;15.10;99.90;;;;;;4129564;28;20038;-84
2021/06/13 05:06:41;;;;;;;13.48;6.75;;;15.10;99.90;;;;;;4143482;28;20524;-85
2021/06/13 05:08:42;;;;;;;11.88;6.72;;;15.10;99.90;;;;;;4145036;28;20038;-85
2021/06/13 05:10:43;;;;;;;14.23;6.35;;;15.10;99.90;;;;;;4146375;28;20102;-80
2021/06/13 05:12:48;;;;;;;11.43;5.95;;;15.10;99.90;;;;;;4125440;28;20097;-80
2021/06/13 05:14:51;;;;;;;16.30;6.90;;;15.20;99.90;;;;;;4128199;28;20034;-79
2021/06/13 05:16:51;;;;;;;15.10;6.75;;;15.20;99.90;;;;;;4145883;28;20030;-80
2021/06/13 05:18:52;;;;;;;16.45;6.07;;;15.20;99.90;;;;;;4145184;28;20083;-79
2021/06/13 05:20:53;;;;;;;10.15;5.57;;;15.20;99.90;;;;;;4145657;28;20402;-79
2021/06/13 05:22:57;;;;;;;12.50;6.30;;;15.30;99.90;;;;;;4118812;28;20951;-79
2021/06/13 05:25:07;;;;;;;13.52;6.18;;;15.30;99.90;;;;;;4139937;28;20108;-79
2021/06/13 05:27:08;;;;;;;11.60;5.72;;;15.40;99.90;;;;;;4145835;28;20030;-79
2021/06/13 05:29:08;;;;;;;9.90;5.60;;;15.40;99.90;;;;;;4145045;28;20041;-79
2021/06/13 05:31:11;;;;;;;11.80;5.63;;;15.50;99.90;;;;;;4129524;28;20022;-80
2021/06/13 05:33:12;;;;;;;8.82;5.65;;;15.50;99.90;;;;;;4129090;28;20038;-81
2021/06/13 05:35:13;;;;;;;10.82;5.45;;;15.50;99.90;;;;;;4149060;28;20041;-80
2021/06/13 05:37:14;;;;;;;10.48;5.55;;;15.60;99.90;;;;;;4121994;28;20041;-80
2021/06/13 05:39:14;;;;;;;10.77;5.85;;;15.60;99.90;;;;;;4146338;28;20458;-80
2021/06/13 05:41:17;;;;;;;11.75;5.68;;;15.60;99.90;;;;;;4130021;28;20509;-80
2021/06/13 05:43:18;;;;;;;;;;;15.70;99.90;;;;;;4125354;28;20062;-80
2021/06/13 05:45:22;;;;;;;11.30;6.43;;;15.80;99.90;;;;;;4129054;28;19920;-80
2021/06/13 05:47:22;;;;;;;10.93;5.32;;;15.90;99.90;;;;;;4128406;28;20038;-80
2021/06/13 05:49:23;;;;;;;8.05;5.20;;;16.20;99.90;;;;;;4148492;28;20220;-80
2021/06/13 05:51:23;;;;;;;12.43;5.68;;;16.50;99.90;;;;;;4124784;28;20090;-80
2021/06/13 05:53:31;;;;;;;11.18;5.63;;;16.90;99.90;;;;;;4145209;28;20057;-80
2021/06/13 05:55:31;;;;;;;7.78;4.57;;;17.30;99.90;;;;;;4129047;28;20030;-80
2021/06/13 05:57:38;;;;;;;9.55;4.65;;;17.80;99.90;;;;;;4147746;28;20030;-80
2021/06/13 05:59:39;;;;;;;10.38;4.75;;;18.20;99.90;;;;;;4150732;28;20034;-80
2021/06/13 06:01:40;;;;;;;8.75;4.20;;;18.60;99.90;;;;;;4151286;28;20040;-80
2021/06/13 06:03:40;;;;;;;9.40;4.72;;;19.00;99.90;;;;;;4145763;28;20068;-80
2021/06/13 06:05:41;;;;;;;8.40;4.45;;;19.40;99.90;;;;;;4123434;28;20510;-80
2021/06/13 06:07:41;;;;;;;9.25;3.15;;;19.70;99.90;;;;;;4146163;28;20087;-80
2021/06/13 06:09:42;;;;;;;10.25;3.33;;;20.00;99.90;;;;;;4144387;28;20030;-80
2021/06/13 06:11:43;;;;;;;9.07;3.90;;;20.30;99.90;;;;;;4131595;28;20113;-80
2021/06/13 06:13:44;;;;;;;4.97;2.95;;;20.60;99.90;;;;;;4154497;28;20033;-80
2021/06/13 06:15:45;;;;;;;6.83;3.77;;;20.80;99.90;;;;;;4143501;28;20030;-80
2021/06/13 06:17:47;;;;;;;7.15;3.35;;;21.00;99.90;;;;;;4148321;28;20791;-80
2021/06/13 06:19:48;;;;;;;9.85;3.33;;;21.10;99.40;;;;;;4135938;28;20092;-81
2021/06/13 06:21:48;;;;;;;4.97;2.60;;;21.30;99.70;;;;;;4140447;28;20458;-81
2021/06/13 06:23:49;;;;;;;6.70;2.83;;;21.50;98.60;;;;;;4142571;28;20029;-80
2021/06/13 06:25:50;;;;;;;7.63;3.45;;;21.60;98.30;;;;;;4147733;28;20029;-81
2021/06/13 06:27:52;;;;;;;4.40;2.80;;;21.80;96.90;;;;;;4141531;28;20120;-81
2021/06/13 06:29:52;;;;;;;6.03;2.95;;;21.90;96.80;;;;;;4143650;28;21080;-80
2021/06/13 06:31:53;;;;;;;6.72;3.40;;;22.00;96.30;;;;;;4124643;28;20042;-80
2021/06/13 06:33:54;;;;;;;10.50;3.50;;;22.10;96.00;;;;;;4142922;28;20042;-80
2021/06/13 06:35:54;;;;;;;6.45;3.35;;;22.10;94.40;;;;;;4145950;28;20383;-81
2021/06/13 06:37:55;;;;;;;11.30;3.30;;;22.10;94.40;;;;;;4127901;28;20057;-81
2021/06/13 06:39:55;;;;;;;6.35;2.78;;;22.10;94.20;;;;;;4142503;28;20561;-81
2021/06/13 06:41:56;;;;;;;6.47;3.08;;;22.10;94.10;;;;;;4141095;28;20064;-81
2021/06/13 06:43:57;;;;;;;6.35;3.00;;;22.10;93.60;;;;;;4137593;28;20121;-81
2021/06/13 06:45:57;;;;;;;8.93;3.53;;;22.10;92.00;;;;;;4135666;28;20064;-80
2021/06/13 06:47:58;;;;;;;6.43;3.22;;;22.10;91.80;;;;;;4140732;28;20090;-80
2021/06/13 06:49:58;;;;;;;4.53;2.60;;;22.00;92.20;;;;;;4136183;28;20057;-80
2021/06/13 06:52:00;;;;;;;8.60;2.97;;;21.90;90.30;;;;;;4134621;28;20493;-80
2021/06/13 06:54:03;;;;;;;7.30;2.83;;;21.90;89.20;;;;;;4124626;28;20189;-80
2021/06/13 06:56:03;;;;;;;8.20;3.38;;;21.80;90.20;;;;;;4143839;28;20137;-80
2021/06/13 06:58:04;;;;;;;5.07;2.65;;;21.60;91.80;;;;;;4127936;28;20078;-81
2021/06/13 07:00:06;;;;;;;4.93;2.70;;;21.40;90.60;;;;;;4144240;28;20038;-80
2021/06/13 07:02:07;;;;;;;9.45;3.38;;;21.30;91.80;;;;;;4143652;28;20037;-80
2021/06/13 07:04:08;;;;;;;6.68;3.38;;;21.20;89.90;;;;;;4138776;28;20068;-81
2021/06/13 07:06:08;;;;;;;8.38;2.97;;;21.10;88.70;;;;;;4140623;28;20053;-80
2021/06/13 07:08:09;;;;;;;8.15;3.13;;;21.00;90.00;;;;;;4125554;28;20072;-82
2021/06/13 07:10:11;;;;;;;7.07;3.03;;;20.90;87.30;;;;;;4141250;28;20053;-81
2021/06/13 07:12:11;;;;;;;7.47;3.50;;;20.80;87.90;;;;;;4143360;28;20045;-81
2021/06/13 07:14:23;;;;;;;8.98;3.55;;;20.80;89.40;;;;;;4139602;28;20508;-81
2021/06/13 07:16:24;;;;;;;5.68;2.78;;;20.60;87.50;;;;;;4140207;28;20038;-81
2021/06/13 07:18:26;;;;;;;9.02;3.13;;;20.50;90.70;;;;;;4144819;28;20022;-80
2021/06/13 07:20:27;;;;;;;6.18;3.00;;;20.50;92.30;;;;;;4129141;28;20118;-82
2021/06/13 07:22:27;;;;;;;7.38;3.30;;;20.40;91.70;;;;;;4124689;28;20094;-82
2021/06/13 07:24:28;;;;;;;5.47;3.13;;;20.30;90.80;;;;;;4142645;28;20052;-80
2021/06/13 07:26:29;;;;;;;4.78;2.50;;;20.20;87.60;;;;;;4126649;28;20030;-81
2021/06/13 07:28:31;;;;;;;8.95;3.25;;;20.10;87.60;;;;;;4145672;28;20053;-82
2021/06/13 07:30:33;;;;;;;7.47;3.05;;;20.00;87.50;;;;;;4141988;28;20597;-82
2021/06/13 07:32:53;;;;;;;8.80;3.30;;;20.00;89.10;;;;;;4141831;28;20506;-81
2021/06/13 07:34:53;;;;;;;6.97;3.25;;;19.80;88.20;;;;;;4141622;28;20044;-81
2021/06/13 07:37:02;;;;;;;6.70;3.30;;;19.80;90.80;;;;;;4126450;28;20647;-82
2021/06/13 07:39:04;;;;;;;7.50;3.55;;;19.80;91.00;;;;;;4143505;28;20034;-80
2021/06/13 07:41:05;;;;;;;18.15;4.25;;;19.70;93.00;;;;;;4146274;28;20041;-82
2021/06/13 07:43:05;;;;;;;6.35;3.58;;;19.60;92.60;;;;;;4142589;28;20026;-81
2021/06/13 07:45:09;;;;;;;7.72;3.35;;;19.50;92.60;;;;;;4141957;28;20042;-82
2021/06/13 07:47:10;;;;;;;6.68;3.33;;;19.40;91.30;;;;;;4145133;28;20696;-81
2021/06/13 07:49:11;;;;;;;4.15;2.60;;;19.50;91.00;;;;;;4143855;28;20053;-81
2021/06/13 07:51:11;;;;;;;6.80;3.00;;;19.40;91.00;;;;;;4141937;28;20080;-81
2021/06/13 07:53:13;;;;;;;8.75;3.58;;;19.40;94.00;;;;;;4145078;28;20432;-82
2021/06/13 07:55:15;;;;;;;8.93;3.80;;;19.40;93.50;;;;;;4123480;28;20057;-82
2021/06/13 07:57:16;;;;;;;6.25;3.13;;;19.40;95.40;;;;;;4129060;28;20805;-80
2021/06/13 07:59:17;;;;;;;9.10;3.92;;;19.40;92.20;;;;;;4127587;28;20129;-80
2021/06/13 08:01:17;;;;;;;6.80;3.17;;;19.30;92.30;;;;;;4124022;28;20217;-82
2021/06/13 08:03:18;;;;;;;9.45;3.05;;;19.30;93.70;;;;;;4142188;28;20093;-82
2021/06/13 08:05:26;;;;;;;6.85;3.30;;;19.30;93.50;;;;;;4127624;28;20038;-82
2021/06/13 08:07:27;;;;;;;6.97;3.53;;;19.30;93.50;;;;;;4147945;28;20084;-82
2021/06/13 08:09:27;;;;;;;5.15;3.30;;;19.30;93.30;;;;;;4123049;28;20514;-81
2021/06/13 08:11:29;;;;;;;8.05;3.67;;;19.30;92.90;;;;;;4144745;28;20473;-81
2021/06/13 08:13:31;;;;;;;8.60;4.28;;;19.30;94.90;;;;;;4142585;28;20038;-81
2021/06/13 08:15:31;;;;;;;6.82;3.47;;;19.30;95.50;;;;;;4149377;28;20034;-81
2021/06/13 08:17:32;;;;;;;6.85;3.40;;;19.30;93.40;;;;;;4138937;28;20062;-82
2021/06/13 08:19:33;;;;;;;11.05;4.35;;;19.30;92.50;;;;;;4142662;28;20042;-81
2021/06/13 08:21:35;;;;;;;13.43;5.18;;;19.20;95.80;;;;;;4125478;28;20074;-81
2021/06/13 08:23:35;;;;;;;10.82;4.72;;;19.10;95.70;;;;;;4130327;28;20510;-82
2021/06/13 08:25:36;;;;;;;10.40;3.60;;;19.00;95.50;;;;;;4140346;28;20026;-80
2021/06/13 08:27:37;;;;;;;7.05;4.10;;;19.10;94.00;;;;;;4143773;28;20060;-81
2021/06/13 08:29:39;;;;;;;9.88;4.15;;;19.10;94.50;;;;;;4128467;28;20049;-81
2021/06/13 08:31:40;;;;;;;6.07;3.43;;;19.10;94.20;;;;;;4140598;28;20042;-81
2021/06/13 08:33:41;;;;;;;8.00;4.05;;;19.10;97.50;;;;;;4137386;28;20590;-82
2021/06/13 08:35:42;;;;;;;13.45;5.05;;;19.20;98.00;;;;;;4142133;28;20038;-82
2021/06/13 08:37:42;;;;;;;7.25;3.83;;;19.20;96.60;;;;;;4142890;28;20080;-82
2021/06/13 08:39:43;;;;;;;6.40;3.67;;;19.30;95.70;;;;;;4139025;28;20668;-82
2021/06/13 08:41:45;;;;;;;8.07;3.15;;;19.30;94.30;;;;;;4146720;28;20048;-81
2021/06/13 08:43:46;;;;;;;7.72;3.15;;;19.30;93.40;;;;;;4126834;28;20597;-83
2021/06/13 08:45:49;;;;;;;8.27;3.57;;;19.40;92.80;;;;;;4142378;28;20049;-81
2021/06/13 08:47:52;;;;;;;5.90;3.35;;;19.50;94.20;;;;;;4143216;28;20465;-81
2021/06/13 08:49:53;;;;;;;;;;;19.50;92.10;;;;;;4143307;28;20045;-81
2021/06/13 08:51:54;;;;;;;6.05;2.90;;;19.50;91.80;;;;;;4127264;28;19921;-81
2021/06/13 08:53:55;;;;;;;9.10;3.10;;;19.50;91.10;;;;;;4134156;28;20034;-81
2021/06/13 08:55:56;;;;;;;7.60;3.05;;;19.70;93.00;;;;;;4143673;28;20030;-81
2021/06/13 08:57:57;;;;;;;8.48;3.30;;;19.70;91.70;;;;;;4146635;28;20061;-82
2021/06/13 08:59:57;;;;;;;7.20;3.30;;;19.70;90.30;;;;;;4146705;28;20030;-81
2021/06/13 09:01:59;;;;;;;5.55;3.20;;;19.80;89.90;;;;;;4139706;28;20046;-81
2021/06/13 09:04:02;;;;;;;7.80;3.00;;;19.90;90.20;;;;;;4126985;28;20129;-81
2021/06/13 09:06:03;;;;;;;8.90;4.13;;;19.90;90.90;;;;;;4143995;28;20199;-81
2021/06/13 09:08:07;;;;;;;9.10;4.05;;;20.00;92.20;;;;;;4146354;28;20084;-82
2021/06/13 09:10:09;;;;;;;8.30;4.00;;;20.10;93.70;;;;;;4142037;28;20034;-81
2021/06/13 09:12:11;;;;;;;7.32;3.15;;;20.20;93.00;;;;;;4138899;28;20100;-82
2021/06/13 09:14:13;;;;;;;7.25;2.97;;;20.40;94.10;;;;;;4138979;28;20061;-81
2021/06/13 09:16:13;;;;;;;5.00;2.92;;;20.50;92.00;;;;;;4151247;28;20030;-81
2021/06/13 09:18:37;;;;;;;5.75;3.15;;;20.50;91.10;;;;;;4143394;28;20096;-81
2021/06/13 09:20:43;;;;;;;7.45;3.03;;;20.70;90.90;;;;;;4121458;28;20034;-79
2021/06/13 09:23:05;;;;;;;5.85;2.97;;;20.80;91.60;;;;;;4133301;28;20123;-79
2021/06/13 09:25:14;;;;;;;7.10;3.42;;;20.90;91.40;;;;;;4142312;28;20026;-79
2021/06/13 09:27:14;;;;;;;7.60;2.95;;;20.90;87.90;;;;;;4148718;28;20026;-78
2021/06/13 09:29:15;;;;;;;5.68;3.05;;;21.00;87.20;;;;;;4145163;28;20052;-79
2021/06/13 09:31:24;;;;;;;8.50;2.92;;;21.00;86.30;;;;;;4145104;28;20041;-79
2021/06/13 09:33:34;;;;;;;6.05;3.15;;;21.00;87.30;;;;;;4146003;28;20091;-79
2021/06/13 09:35:35;;;;;;;9.00;3.80;;;21.10;83.60;;;;;;4128734;28;20043;-78
2021/06/13 09:37:35;;;;;;;5.68;2.83;;;21.10;84.00;;;;;;4145097;28;20040;-79
2021/06/13 09:39:37;;;;;;;7.57;3.67;;;21.10;84.20;;;;;;4144399;28;20038;-79
2021/06/13 09:41:44;;;;;;;10.18;2.92;;;21.10;84.70;;;;;;4143839;28;20033;-79
2021/06/13 09:43:49;;;;;;;8.27;3.50;;;21.20;82.70;;;;;;4146612;28;20040;-79
2021/06/13 09:46:12;;;;;;;5.45;2.83;;;21.20;82.90;;;;;;4143991;28;20100;-79
2021/06/13 09:48:13;;;;;;;3.83;2.65;;;21.20;81.50;;;;;;4126034;28;20129;-79
2021/06/13 09:50:35;;;;;;;5.38;2.65;;;21.20;84.30;;;;;;4147313;28;20140;-79
2021/06/13 09:52:35;;;;;;;8.35;3.42;;;21.30;87.00;;;;;;4139929;28;20354;-81
2021/06/13 09:54:36;;;;;;;5.55;2.72;;;21.50;91.30;;;;;;4141255;28;20034;-79
2021/06/13 09:56:38;;;;;;;7.25;3.28;;;21.50;86.80;;;;;;4126296;28;20030;-79
2021/06/13 09:59:06;;;;;;;4.72;2.42;;;21.60;85.40;;;;;;4138251;28;20105;-80
2021/06/13 10:01:08;;;;;;;5.45;2.92;;;21.70;84.00;;;;;;4131020;28;20023;-79
2021/06/13 10:03:25;;;;;;;5.07;2.83;;;21.70;86.40;;;;;;4141831;28;20041;-79
2021/06/13 10:05:25;;;;;;;4.07;2.38;;;21.80;81.60;;;;;;4140312;28;20041;-79
2021/06/13 10:07:30;;;;;;;7.55;3.17;;;21.80;81.70;;;;;;4144397;28;20690;-79
2021/06/13 10:09:44;;;;;;;7.68;3.55;;;21.90;87.30;;;;;;4126484;28;20510;-79
2021/06/13 10:11:45;;;;;;;6.90;3.80;;;22.00;89.50;;;;;;4140086;28;20051;-79
2021/06/13 10:13:56;;;;;;;8.88;2.97;;;22.10;88.60;;;;;;4123868;28;20094;-79
2021/06/13 10:15:57;;;;;;;6.00;2.88;;;22.10;87.20;;;;;;4144978;28;20432;-79
2021/06/13 10:18:11;;;;;;;6.40;2.92;;;22.10;86.60;;;;;;4138644;28;20347;-79
2021/06/13 10:20:24;;;;;;;6.53;3.30;;;22.20;81.70;;;;;;4140811;28;20572;-80
2021/06/13 10:22:25;;;;;;;8.45;3.00;;;22.20;85.40;;;;;;4133746;28;20407;-79
2021/06/13 10:24:28;;;;;;;8.68;3.70;;;22.10;87.50;;;;;;4140409;28;20069;-79
2021/06/13 10:26:29;;;;;;;6.72;2.95;;;22.00;87.00;;;;;;4143269;28;20039;-80
2021/06/13 10:28:29;;;;;;;5.95;3.20;;;22.10;84.00;;;;;;4137750;28;20065;-80
2021/06/13 10:30:30;;;;;;;5.18;2.95;;;22.10;85.70;;;;;;4143619;28;20030;-79
2021/06/13 10:32:31;;;;;;;5.75;2.45;;;22.10;82.50;;;;;;4141924;28;20026;-79
2021/06/13 10:34:32;;;;;;;5.72;2.63;;;22.20;81.10;;;;;;4146808;28;20038;-79
2021/06/13 10:36:36;;;;;;;5.40;2.80;;;22.30;81.10;;;;;;4138723;28;20101;-79
2021/06/13 10:38:37;;;;;;;7.00;2.70;;;22.30;83.20;;;;;;4127289;28;20040;-79
2021/06/13 10:40:38;;;;;;;5.60;3.17;;;22.40;82.30;;;;;;4128761;28;20387;-79
2021/06/13 10:42:38;;;;;;;6.60;3.00;;;22.40;83.00;;;;;;4137225;28;20153;-79